sensor_id;sensor_type;location;lat;lon;timestamp;temperature;humidity
30250;DHT22;17064;47.974;13.826;2022-07-29T00:04:26;18.30;99.90
30250;DHT22;17064;47.974;13.826;2022-07-29T00:09:47;18.30;99.90
30250;DHT22;17064;47.974;13.826;2022-07-29T00:15:08;18.20;99.90
30250;DHT22;17064;47.974;13.826;2022-07-29T00:20:29;18.10;99.90
30250;DHT22;17064;47.974;13.826;2022-07-29T00:25:50;18.00;99.90
30250;DHT22;17064;47.974;13.826;2022-07-29T00:31:11;17.90;99.90
30250;DHT22;17064;47.974;13.826;2022-07-29T00:36:32;17.90;99.90
30250;DHT22;17064;47.974;13.826;2022-07-29T00:41:53;17.80;99.90
30250;DHT22;17064;47.974;13.826;2022-07-29T00:47:14;17.80;99.90
30250;DHT22;17064;47.974;13.826;2022-07-29T00:52:37;17.80;99.90
30250;DHT22;17064;47.974;13.826;2022-07-29T00:57:58;17.80;99.90
30250;DHT22;17064;47.974;13.826;2022-07-29T01:03:20;17.80;99.90
30250;DHT22;17064;47.974;13.826;2022-07-29T01:08:41;17.80;99.90
30250;DHT22;17064;47.974;13.826;2022-07-29T01:14:03;17.80;99.90
30250;DHT22;17064;47.974;13.826;2022-07-29T01:19:41;17.80;99.90
30250;DHT22;17064;47.974;13.826;2022-07-29T01:25:40;17.90;99.90
30250;DHT22;17064;47.974;13.826;2022-07-29T01:30:54;17.90;99.90
30250;DHT22;17064;47.974;13.826;2022-07-29T01:36:32;17.90;99.90
30250;DHT22;17064;47.974;13.826;2022-07-29T01:42:10;17.80;99.90
30250;DHT22;17064;47.974;13.826;2022-07-29T01:47:39;17.80;99.90
30250;DHT22;17064;47.974;13.826;2022-07-29T01:53:03;17.70;99.90
30250;DHT22;17064;47.974;13.826;2022-07-29T01:58:26;17.70;99.90
30250;DHT22;17064;47.974;13.826;2022-07-29T02:03:48;17.70;99.90
30250;DHT22;17064;47.974;13.826;2022-07-29T02:09:12;17.70;99.90
30250;DHT22;17064;47.974;13.826;2022-07-29T02:14:42;17.80;99.90
30250;DHT22;17064;47.974;13.826;2022-07-29T02:20:05;17.70;99.90
30250;DHT22;17064;47.974;13.826;2022-07-29T02:25:26;17.70;99.90
30250;DHT22;17064;47.974;13.826;2022-07-29T02:30:50;17.70;99.90
30250;DHT22;17064;47.974;13.826;2022-07-29T02:36:12;17.70;99.90
30250;DHT22;17064;47.974;13.826;2022-07-29T02:41:47;17.70;99.90
30250;DHT22;17064;47.974;13.826;2022-07-29T02:47:18;17.70;99.90
30250;DHT22;17064;47.974;13.826;2022-07-29T02:58:06;17.80;99.90
30250;DHT22;17064;47.974;13.826;2022-07-29T03:03:35;17.90;99.90
30250;DHT22;17064;47.974;13.826;2022-07-29T03:08:57;17.80;99.90
30250;DHT22;17064;47.974;13.826;2022-07-29T03:14:20;17.80;99.90
30250;DHT22;17064;47.974;13.826;2022-07-29T03:19:42;17.70;99.90
30250;DHT22;17064;47.974;13.826;2022-07-29T03:25:10;17.70;99.90
30250;DHT22;17064;47.974;13.826;2022-07-29T03:30:31;17.70;99.90
30250;DHT22;17064;47.974;13.826;2022-07-29T03:35:52;17.70;99.90
30250;DHT22;17064;47.974;13.826;2022-07-29T03:41:14;17.70;99.90
30250;DHT22;17064;47.974;13.826;2022-07-29T03:46:39;17.70;99.90
30250;DHT22;17064;47.974;13.826;2022-07-29T03:52:00;17.70;99.90
30250;DHT22;17064;47.974;13.826;2022-07-29T03:57:24;17.80;99.90
30250;DHT22;17064;47.974;13.826;2022-07-29T04:02:48;17.80;99.90
30250;DHT22;17064;47.974;13.826;2022-07-29T04:08:09;17.80;99.90
30250;DHT22;17064;47.974;13.826;2022-07-29T04:13:30;17.80;99.90
30250;DHT22;17064;47.974;13.826;2022-07-29T04:18:52;18.00;99.90
30250;DHT22;17064;47.974;13.826;2022-07-29T04:24:13;18.00;99.90
30250;DHT22;17064;47.974;13.826;2022-07-29T04:29:34;18.10;99.90
30250;DHT22;17064;47.974;13.826;2022-07-29T04:34:55;18.20;99.90
30250;DHT22;17064;47.974;13.826;2022-07-29T04:40:16;18.30;99.90
30250;DHT22;17064;47.974;13.826;2022-07-29T04:45:37;18.30;99.90
30250;DHT22;17064;47.974;13.826;2022-07-29T04:50:58;18.20;99.90
30250;DHT22;17064;47.974;13.826;2022-07-29T04:56:19;18.30;99.90
30250;DHT22;17064;47.974;13.826;2022-07-29T05:01:40;18.40;99.90
30250;DHT22;17064;47.974;13.826;2022-07-29T05:07:01;18.40;99.90
30250;DHT22;17064;47.974;13.826;2022-07-29T05:12:23;18.50;99.90
30250;DHT22;17064;47.974;13.826;2022-07-29T05:17:44;18.60;99.90
30250;DHT22;17064;47.974;13.826;2022-07-29T05:23:05;18.70;99.90
30250;DHT22;17064;47.974;13.826;2022-07-29T05:28:26;18.80;99.90
30250;DHT22;17064;47.974;13.826;2022-07-29T05:33:47;18.90;99.90
30250;DHT22;17064;47.974;13.826;2022-07-29T05:39:08;19.10;99.90
30250;DHT22;17064;47.974;13.826;2022-07-29T05:44:29;19.20;99.90
30250;DHT22;17064;47.974;13.826;2022-07-29T05:49:50;19.40;99.90
30250;DHT22;17064;47.974;13.826;2022-07-29T05:55:11;19.60;99.90
30250;DHT22;17064;47.974;13.826;2022-07-29T06:00:32;19.80;99.90
30250;DHT22;17064;47.974;13.826;2022-07-29T06:05:53;19.90;99.90
30250;DHT22;17064;47.974;13.826;2022-07-29T06:11:14;20.00;99.90
30250;DHT22;17064;47.974;13.826;2022-07-29T06:16:35;20.10;99.90
30250;DHT22;17064;47.974;13.826;2022-07-29T06:21:56;20.20;99.90
30250;DHT22;17064;47.974;13.826;2022-07-29T06:27:18;20.30;99.90
30250;DHT22;17064;47.974;13.826;2022-07-29T06:32:39;20.40;99.90
30250;DHT22;17064;47.974;13.826;2022-07-29T06:38:01;20.40;99.90
30250;DHT22;17064;47.974;13.826;2022-07-29T06:43:22;20.60;99.90
30250;DHT22;17064;47.974;13.826;2022-07-29T06:48:44;20.60;99.90
30250;DHT22;17064;47.974;13.826;2022-07-29T06:54:05;20.70;99.90
30250;DHT22;17064;47.974;13.826;2022-07-29T06:59:26;20.70;99.90
30250;DHT22;17064;47.974;13.826;2022-07-29T07:04:47;20.80;99.90
30250;DHT22;17064;47.974;13.826;2022-07-29T07:10:08;20.80;99.90
30250;DHT22;17064;47.974;13.826;2022-07-29T07:15:29;20.70;99.90
30250;DHT22;17064;47.974;13.826;2022-07-29T07:20:50;20.70;99.90
30250;DHT22;17064;47.974;13.826;2022-07-29T07:26:12;20.60;99.90
30250;DHT22;17064;47.974;13.826;2022-07-29T07:31:33;20.60;99.90
30250;DHT22;17064;47.974;13.826;2022-07-29T07:36:54;20.60;99.90
30250;DHT22;17064;47.974;13.826;2022-07-29T07:42:14;20.60;99.90
30250;DHT22;17064;47.974;13.826;2022-07-29T07:47:39;20.60;99.90
30250;DHT22;17064;47.974;13.826;2022-07-29T07:53:00;20.60;99.90
30250;DHT22;17064;47.974;13.826;2022-07-29T07:58:22;20.60;99.90
30250;DHT22;17064;47.974;13.826;2022-07-29T08:03:43;20.70;99.90
30250;DHT22;17064;47.974;13.826;2022-07-29T08:09:04;20.80;99.90
30250;DHT22;17064;47.974;13.826;2022-07-29T08:14:25;20.90;99.90
30250;DHT22;17064;47.974;13.826;2022-07-29T08:19:46;20.90;99.90
30250;DHT22;17064;47.974;13.826;2022-07-29T08:25:09;21.00;99.90
30250;DHT22;17064;47.974;13.826;2022-07-29T08:30:30;21.20;99.90
30250;DHT22;17064;47.974;13.826;2022-07-29T08:35:51;21.30;99.90
30250;DHT22;17064;47.974;13.826;2022-07-29T08:41:12;21.50;99.90
30250;DHT22;17064;47.974;13.826;2022-07-29T08:46:33;21.70;99.90
30250;DHT22;17064;47.974;13.826;2022-07-29T08:51:55;21.90;99.90
30250;DHT22;17064;47.974;13.826;2022-07-29T08:57:19;22.60;99.90
30250;DHT22;17064;47.974;13.826;2022-07-29T09:02:44;23.40;99.90
30250;DHT22;17064;47.974;13.826;2022-07-29T09:08:06;23.90;99.90
30250;DHT22;17064;47.974;13.826;2022-07-29T09:13:27;24.20;99.90
30250;DHT22;17064;47.974;13.826;2022-07-29T09:18:48;24.40;99.90
30250;DHT22;17064;47.974;13.826;2022-07-29T09:24:12;24.90;99.90
30250;DHT22;17064;47.974;13.826;2022-07-29T09:29:33;25.60;99.90
30250;DHT22;17064;47.974;13.826;2022-07-29T09:35:14;26.40;99.90
30250;DHT22;17064;47.974;13.826;2022-07-29T09:40:36;27.00;99.90
30250;DHT22;17064;47.974;13.826;2022-07-29T09:46:13;27.40;99.90
30250;DHT22;17064;47.974;13.826;2022-07-29T09:51:34;27.80;94.70
30250;DHT22;17064;47.974;13.826;2022-07-29T09:56:55;28.10;90.80
30250;DHT22;17064;47.974;13.826;2022-07-29T10:02:16;28.10;87.40
30250;DHT22;17064;47.974;13.826;2022-07-29T10:07:53;28.50;86.20
30250;DHT22;17064;47.974;13.826;2022-07-29T10:13:14;28.50;82.10
30250;DHT22;17064;47.974;13.826;2022-07-29T10:18:38;28.60;76.80
30250;DHT22;17064;47.974;13.826;2022-07-29T10:24:00;28.80;75.00
30250;DHT22;17064;47.974;13.826;2022-07-29T10:29:22;28.90;75.60
30250;DHT22;17064;47.974;13.826;2022-07-29T10:34:51;29.10;70.70
30250;DHT22;17064;47.974;13.826;2022-07-29T10:46:20;29.60;67.10
30250;DHT22;17064;47.974;13.826;2022-07-29T10:57:22;29.50;67.30
30250;DHT22;17064;47.974;13.826;2022-07-29T11:02:46;29.70;64.80
30250;DHT22;17064;47.974;13.826;2022-07-29T11:24:31;30.20;63.40
30250;DHT22;17064;47.974;13.826;2022-07-29T11:29:54;30.00;62.00
30250;DHT22;17064;47.974;13.826;2022-07-29T11:35:19;29.90;63.60
30250;DHT22;17064;47.974;13.826;2022-07-29T11:41:20;30.20;60.00
30250;DHT22;17064;47.974;13.826;2022-07-29T11:46:49;30.50;64.40
30250;DHT22;17064;47.974;13.826;2022-07-29T11:52:11;30.90;59.70
30250;DHT22;17064;47.974;13.826;2022-07-29T11:57:34;30.90;58.10
30250;DHT22;17064;47.974;13.826;2022-07-29T12:02:57;31.10;57.90
30250;DHT22;17064;47.974;13.826;2022-07-29T12:08:20;31.20;56.00
30250;DHT22;17064;47.974;13.826;2022-07-29T12:13:42;31.10;56.40
30250;DHT22;17064;47.974;13.826;2022-07-29T12:19:04;31.10;55.80
30250;DHT22;17064;47.974;13.826;2022-07-29T12:24:25;31.10;57.90
30250;DHT22;17064;47.974;13.826;2022-07-29T12:30:15;31.40;57.50
30250;DHT22;17064;47.974;13.826;2022-07-29T12:35:48;31.20;53.90
30250;DHT22;17064;47.974;13.826;2022-07-29T12:41:10;31.10;56.00
30250;DHT22;17064;47.974;13.826;2022-07-29T12:46:31;30.90;52.50
30250;DHT22;17064;47.974;13.826;2022-07-29T12:51:55;30.80;54.80
30250;DHT22;17064;47.974;13.826;2022-07-29T12:57:16;30.90;54.30
30250;DHT22;17064;47.974;13.826;2022-07-29T13:02:38;30.70;54.40
30250;DHT22;17064;47.974;13.826;2022-07-29T13:08:13;31.10;53.30
30250;DHT22;17064;47.974;13.826;2022-07-29T13:13:50;31.40;54.80
30250;DHT22;17064;47.974;13.826;2022-07-29T13:19:12;31.30;49.40
30250;DHT22;17064;47.974;13.826;2022-07-29T13:24:33;30.80;51.70
30250;DHT22;17064;47.974;13.826;2022-07-29T13:29:57;31.10;50.30
30250;DHT22;17064;47.974;13.826;2022-07-29T13:35:19;31.30;50.30
30250;DHT22;17064;47.974;13.826;2022-07-29T13:40:41;31.30;50.20
30250;DHT22;17064;47.974;13.826;2022-07-29T13:46:02;31.00;50.80
30250;DHT22;17064;47.974;13.826;2022-07-29T13:51:23;30.90;50.50
30250;DHT22;17064;47.974;13.826;2022-07-29T13:56:44;30.80;51.80
30250;DHT22;17064;47.974;13.826;2022-07-29T14:02:05;30.40;50.80
30250;DHT22;17064;47.974;13.826;2022-07-29T14:07:26;30.10;51.30
30250;DHT22;17064;47.974;13.826;2022-07-29T14:12:47;29.60;52.20
30250;DHT22;17064;47.974;13.826;2022-07-29T14:18:08;29.40;54.20
30250;DHT22;17064;47.974;13.826;2022-07-29T14:23:29;29.30;53.30
30250;DHT22;17064;47.974;13.826;2022-07-29T14:28:50;29.30;54.40
30250;DHT22;17064;47.974;13.826;2022-07-29T14:34:12;29.20;54.20
30250;DHT22;17064;47.974;13.826;2022-07-29T14:39:34;28.80;55.60
30250;DHT22;17064;47.974;13.826;2022-07-29T14:44:55;28.40;56.90
30250;DHT22;17064;47.974;13.826;2022-07-29T14:50:16;28.30;53.80
30250;DHT22;17064;47.974;13.826;2022-07-29T14:55:39;28.20;55.50
30250;DHT22;17064;47.974;13.826;2022-07-29T15:01:01;28.10;57.20
30250;DHT22;17064;47.974;13.826;2022-07-29T15:06:22;28.10;58.70
30250;DHT22;17064;47.974;13.826;2022-07-29T15:11:43;28.10;58.00
30250;DHT22;17064;47.974;13.826;2022-07-29T15:17:07;28.00;55.50
30250;DHT22;17064;47.974;13.826;2022-07-29T15:22:29;27.70;57.30
30250;DHT22;17064;47.974;13.826;2022-07-29T15:27:50;27.30;57.40
30250;DHT22;17064;47.974;13.826;2022-07-29T15:33:11;27.10;59.40
30250;DHT22;17064;47.974;13.826;2022-07-29T15:38:32;26.90;60.60
30250;DHT22;17064;47.974;13.826;2022-07-29T15:43:53;26.90;60.40
30250;DHT22;17064;47.974;13.826;2022-07-29T15:49:14;27.00;60.30
30250;DHT22;17064;47.974;13.826;2022-07-29T15:54:37;27.00;60.90
30250;DHT22;17064;47.974;13.826;2022-07-29T15:59:59;27.00;61.00
30250;DHT22;17064;47.974;13.826;2022-07-29T16:05:20;27.00;62.30
30250;DHT22;17064;47.974;13.826;2022-07-29T16:10:41;27.10;62.10
30250;DHT22;17064;47.974;13.826;2022-07-29T16:16:02;27.10;61.00
30250;DHT22;17064;47.974;13.826;2022-07-29T16:21:24;27.10;61.10
30250;DHT22;17064;47.974;13.826;2022-07-29T16:26:45;27.10;59.70
30250;DHT22;17064;47.974;13.826;2022-07-29T16:32:06;26.90;60.80
30250;DHT22;17064;47.974;13.826;2022-07-29T16:37:27;26.70;62.20
30250;DHT22;17064;47.974;13.826;2022-07-29T16:42:55;26.50;64.40
30250;DHT22;17064;47.974;13.826;2022-07-29T16:48:16;26.40;63.50
30250;DHT22;17064;47.974;13.826;2022-07-29T16:53:37;26.30;65.30
30250;DHT22;17064;47.974;13.826;2022-07-29T16:58:58;26.30;66.10
30250;DHT22;17064;47.974;13.826;2022-07-29T17:04:19;26.20;66.00
30250;DHT22;17064;47.974;13.826;2022-07-29T17:09:40;26.20;66.80
30250;DHT22;17064;47.974;13.826;2022-07-29T17:15:03;26.20;68.10
30250;DHT22;17064;47.974;13.826;2022-07-29T17:20:24;26.20;68.80
30250;DHT22;17064;47.974;13.826;2022-07-29T17:25:46;26.00;67.50
30250;DHT22;17064;47.974;13.826;2022-07-29T17:31:07;25.80;69.20
30250;DHT22;17064;47.974;13.826;2022-07-29T17:36:31;25.60;70.50
30250;DHT22;17064;47.974;13.826;2022-07-29T17:41:53;25.30;72.10
30250;DHT22;17064;47.974;13.826;2022-07-29T17:47:14;25.20;72.70
30250;DHT22;17064;47.974;13.826;2022-07-29T17:52:35;25.00;73.40
30250;DHT22;17064;47.974;13.826;2022-07-29T17:57:58;24.90;78.10
30250;DHT22;17064;47.974;13.826;2022-07-29T18:03:19;24.60;85.30
30250;DHT22;17064;47.974;13.826;2022-07-29T18:08:43;24.50;91.70
30250;DHT22;17064;47.974;13.826;2022-07-29T18:14:07;24.20;94.80
30250;DHT22;17064;47.974;13.826;2022-07-29T18:19:28;24.00;97.10
30250;DHT22;17064;47.974;13.826;2022-07-29T18:24:49;23.80;98.40
30250;DHT22;17064;47.974;13.826;2022-07-29T18:30:10;23.60;99.90
30250;DHT22;17064;47.974;13.826;2022-07-29T18:35:31;23.40;99.90
30250;DHT22;17064;47.974;13.826;2022-07-29T18:40:52;23.30;99.90
30250;DHT22;17064;47.974;13.826;2022-07-29T18:46:13;23.20;99.90
30250;DHT22;17064;47.974;13.826;2022-07-29T18:51:34;23.20;99.90
30250;DHT22;17064;47.974;13.826;2022-07-29T18:57:02;23.10;99.90
30250;DHT22;17064;47.974;13.826;2022-07-29T19:02:23;23.00;99.90
30250;DHT22;17064;47.974;13.826;2022-07-29T19:07:44;22.90;99.90
30250;DHT22;17064;47.974;13.826;2022-07-29T19:13:05;22.80;99.90
30250;DHT22;17064;47.974;13.826;2022-07-29T19:18:27;22.70;99.90
30250;DHT22;17064;47.974;13.826;2022-07-29T19:23:49;22.60;99.90
30250;DHT22;17064;47.974;13.826;2022-07-29T19:29:09;22.50;99.90
30250;DHT22;17064;47.974;13.826;2022-07-29T19:34:31;22.40;99.90
30250;DHT22;17064;47.974;13.826;2022-07-29T19:39:52;22.00;99.90
30250;DHT22;17064;47.974;13.826;2022-07-29T19:45:13;21.50;99.90
30250;DHT22;17064;47.974;13.826;2022-07-29T19:50:34;21.00;99.90
30250;DHT22;17064;47.974;13.826;2022-07-29T19:55:54;20.30;99.90
30250;DHT22;17064;47.974;13.826;2022-07-29T20:01:16;19.50;99.90
30250;DHT22;17064;47.974;13.826;2022-07-29T20:06:37;19.00;99.90
30250;DHT22;17064;47.974;13.826;2022-07-29T20:11:58;18.80;99.90
30250;DHT22;17064;47.974;13.826;2022-07-29T20:17:19;18.50;99.90
30250;DHT22;17064;47.974;13.826;2022-07-29T20:22:42;18.40;99.90
30250;DHT22;17064;47.974;13.826;2022-07-29T20:28:04;18.20;99.90
30250;DHT22;17064;47.974;13.826;2022-07-29T20:33:27;18.20;99.90
30250;DHT22;17064;47.974;13.826;2022-07-29T20:38:48;18.20;99.90
30250;DHT22;17064;47.974;13.826;2022-07-29T20:44:09;18.20;99.90
30250;DHT22;17064;47.974;13.826;2022-07-29T20:49:30;18.20;99.90
30250;DHT22;17064;47.974;13.826;2022-07-29T20:54:51;18.10;99.90
30250;DHT22;17064;47.974;13.826;2022-07-29T21:00:13;18.00;99.90
30250;DHT22;17064;47.974;13.826;2022-07-29T21:05:36;18.00;99.90
30250;DHT22;17064;47.974;13.826;2022-07-29T21:10:57;17.90;99.90
30250;DHT22;17064;47.974;13.826;2022-07-29T21:16:18;17.90;99.90
30250;DHT22;17064;47.974;13.826;2022-07-29T21:21:40;17.80;99.90
30250;DHT22;17064;47.974;13.826;2022-07-29T21:27:01;17.80;99.90
30250;DHT22;17064;47.974;13.826;2022-07-29T21:32:40;17.70;99.90
30250;DHT22;17064;47.974;13.826;2022-07-29T21:38:01;17.60;99.90
30250;DHT22;17064;47.974;13.826;2022-07-29T21:43:23;17.60;99.90
30250;DHT22;17064;47.974;13.826;2022-07-29T21:48:44;17.60;99.90
30250;DHT22;17064;47.974;13.826;2022-07-29T21:54:05;17.50;99.90
30250;DHT22;17064;47.974;13.826;2022-07-29T21:59:26;17.50;99.90
30250;DHT22;17064;47.974;13.826;2022-07-29T22:04:47;17.50;99.90
30250;DHT22;17064;47.974;13.826;2022-07-29T22:10:08;17.40;99.90
30250;DHT22;17064;47.974;13.826;2022-07-29T22:15:30;17.40;99.90
30250;DHT22;17064;47.974;13.826;2022-07-29T22:20:51;17.40;99.90
30250;DHT22;17064;47.974;13.826;2022-07-29T22:26:12;17.30;99.90
30250;DHT22;17064;47.974;13.826;2022-07-29T22:31:33;17.20;99.90
30250;DHT22;17064;47.974;13.826;2022-07-29T22:36:54;17.20;99.90
30250;DHT22;17064;47.974;13.826;2022-07-29T22:42:15;17.20;99.90
30250;DHT22;17064;47.974;13.826;2022-07-29T22:47:36;17.20;99.90
30250;DHT22;17064;47.974;13.826;2022-07-29T22:52:57;17.10;99.90
30250;DHT22;17064;47.974;13.826;2022-07-29T22:58:18;17.10;99.90
30250;DHT22;17064;47.974;13.826;2022-07-29T23:03:39;17.10;99.90
30250;DHT22;17064;47.974;13.826;2022-07-29T23:09:00;17.00;99.90
30250;DHT22;17064;47.974;13.826;2022-07-29T23:14:21;16.90;99.90
30250;DHT22;17064;47.974;13.826;2022-07-29T23:19:42;16.90;99.90
30250;DHT22;17064;47.974;13.826;2022-07-29T23:25:04;16.90;99.90
30250;DHT22;17064;47.974;13.826;2022-07-29T23:30:26;16.90;99.90
30250;DHT22;17064;47.974;13.826;2022-07-29T23:35:47;16.90;99.90
30250;DHT22;17064;47.974;13.826;2022-07-29T23:41:08;16.90;99.90
30250;DHT22;17064;47.974;13.826;2022-07-29T23:46:29;16.80;99.90
30250;DHT22;17064;47.974;13.826;2022-07-29T23:51:50;16.90;99.90
30250;DHT22;17064;47.974;13.826;2022-07-29T23:57:11;16.80;99.90
